CMB weather

Bandaranaike International Colombo Airport
Colombo, Western Province, Sri Lanka

Public forecast

Using degrees Celsius for public forecast. Weather courtesy of forecast.io.

METAR (pilot weather report)

Retrieved 2017/07/22 01:10 UTC (49 minutes ago):

VCBI 220110Z 14005KT 9000 FEW016 25/24 Q1009 NOSIG

TAF (pilot weather forecast)

Forecast is more than 12 hours old.

Retrieved 2017/06/30 06:45 UTC (22 days ago):

TAF VCBI 300340Z 3006/0112 25012KT 9999 SCT016 TX31/3007Z TN28/3023Z PROB30 TEMPO 3023/0103 7000 -SHRA FEW012 SCT016 FEW020CB